Antakya, Turkey
Current Conditions -  °F | °C
As of 6:50 AM on Tuesday 27 Jan 2015 (Local Time) from LTDA Reporting Station
Haze Haze  
Wind Chill:   Ceiling: Unl
Heat Index:   Visibility: 1.1mi
Dew Point:   Wind: 3mph
Humidity: 100%   Direction: 10°N
Pressure: 30.15"   Gusts: NA
Location:  36.2°N, 36.15°E
Report Text: LTDA 270450Z 01003KT 1800 BR NSC 04/04 Q1021
Loading
Personal Weather Stations






























Interactive Weather Map New forecast layout! Learn more

10-Day Weather Forecast

Advertisements
Track Severe Weather on mobile